Time;durP1;ratioP1;P1;durP2;ratioP2;P2;SDS_P1;SDS_P2;PMS_P1;PMS_P2;Temp;Humidity;BMP_temperature;BMP_pressure;BME280_temperature;BME280_humidity;BME280_pressure;Samples;Min_cycle;Max_cycle;Signal;HPM_P1;HPM_P2
2023/03/31 00:00:43;;;;;;;12.80;8.57;;;;;;;11.34;100.00;101469.38;2079862;28;20196;-67
2023/03/31 00:01:43;;;;;;;14.63;7.60;;;;;;;11.22;100.00;101427.53;2080045;28;20184;-67
2023/03/31 00:02:44;;;;;;;9.13;6.20;;;;;;;11.30;100.00;101442.88;2080418;28;20418;-67
2023/03/31 00:03:45;;;;;;;9.47;6.03;;;;;;;10.12;100.00;101258.28;2080668;28;20275;-67
2023/03/31 00:04:51;;;;;;;9.10;5.40;;;;;;;11.37;100.00;101440.00;2079323;28;20485;-67
2023/03/31 00:05:59;;;;;;;9.03;5.73;;;;;;;11.37;100.00;101440.00;2078865;28;20195;-67
2023/03/31 00:06:59;;;;;;;8.93;5.27;;;;;;;11.44;100.00;101437.91;2073901;28;20442;-67
2023/03/31 00:08:00;;;;;;;8.10;5.57;;;;;;;11.46;100.00;101446.59;2076630;28;20439;-67
2023/03/31 00:09:00;;;;;;;10.37;5.83;;;;;;;11.44;100.00;101439.91;2076251;28;20267;-67
2023/03/31 00:10:01;;;;;;;8.90;5.63;;;;;;;11.44;100.00;101443.47;2074051;28;20410;-67
2023/03/31 00:11:04;;;;;;;8.13;5.63;;;;;;;11.42;100.00;101445.88;2077940;28;20572;-67
2023/03/31 00:12:04;;;;;;;9.67;5.80;;;;;;;11.42;100.00;101440.31;2072481;28;20166;-67
2023/03/31 00:13:05;;;;;;;7.17;5.20;;;;;;;11.40;100.00;101444.72;2082117;28;20407;-67
2023/03/31 00:14:06;;;;;;;7.63;5.43;;;;;;;11.36;100.00;101436.44;2073802;28;20866;-67
2023/03/31 00:15:07;;;;;;;9.83;6.00;;;;;;;11.37;100.00;101440.00;2080049;28;20203;-67
2023/03/31 00:16:08;;;;;;;10.23;5.97;;;;;;;11.38;100.00;101438.81;2081444;28;20450;-67
2023/03/31 00:17:10;;;;;;;9.57;5.50;;;;;;;11.34;100.00;101447.19;2081726;28;20234;-67
2023/03/31 00:18:10;;;;;;;10.87;5.50;;;;;;;11.23;100.00;101429.09;2081211;28;20504;-67
2023/03/31 00:19:19;;;;;;;9.67;5.50;;;;;;;11.34;100.00;101447.19;2081555;28;20454;-67
2023/03/31 00:20:20;;;;;;;6.73;5.40;;;;;;;11.38;100.00;101447.13;2081721;28;20542;-67
2023/03/31 00:21:24;;;;;;;7.63;5.30;;;;;;;11.39;100.00;101443.94;2081552;28;20419;-67
2023/03/31 00:22:26;;;;;;;8.00;5.27;;;;;;;11.24;100.00;101427.91;2081416;28;20588;-67
2023/03/31 00:23:26;;;;;;;9.83;5.30;;;;;;;10.90;100.00;101372.47;2081899;28;20477;-67
2023/03/31 00:24:31;;;;;;;8.97;5.40;;;;;;;11.40;100.00;101436.38;2081750;28;20450;-67
2023/03/31 00:25:32;;;;;;;10.03;5.60;;;;;;;11.38;100.00;101442.34;2081046;28;20220;-68
2023/03/31 00:26:33;;;;;;;11.43;5.90;;;;;;;11.41;100.00;101443.50;2081458;28;20530;-67
2023/03/31 00:27:34;;;;;;;10.70;5.80;;;;;;;11.42;100.00;101445.09;2075683;28;20181;-67
2023/03/31 00:28:34;;;;;;;9.60;5.80;;;;;;;11.44;100.00;101437.13;2077527;28;20447;-67
2023/03/31 00:29:35;;;;;;;9.00;6.13;;;;;;;11.47;100.00;101439.06;2081478;28;20717;-67
2023/03/31 00:30:35;;;;;;;9.00;6.13;;;;;;;11.46;100.00;101438.28;2079646;28;20177;-67
2023/03/31 00:31:37;;;;;;;10.00;5.90;;;;;;;11.45;100.00;101436.72;2073572;28;20216;-68
2023/03/31 00:32:38;;;;;;;9.37;5.90;;;;;;;11.32;100.00;101429.38;2073885;28;20178;-67
2023/03/31 00:33:38;;;;;;;9.37;6.80;;;;;;;10.80;100.00;101355.97;2081289;28;20455;-67
2023/03/31 00:34:39;;;;;;;9.43;6.53;;;;;;;11.42;100.00;101443.09;2081509;28;20219;-67
2023/03/31 00:35:40;;;;;;;9.53;6.20;;;;;;;11.28;100.00;101415.53;2080646;28;20194;-67
2023/03/31 00:36:46;;;;;;;8.47;6.03;;;;;;;11.49;100.00;101453.31;2081489;28;20431;-68
2023/03/31 00:37:46;;;;;;;9.37;6.40;;;;;;;11.44;100.00;101439.91;2081023;28;20574;-67
2023/03/31 00:38:48;;;;;;;9.73;6.37;;;;;;;11.42;100.00;101445.09;2081232;28;20439;-67
2023/03/31 00:39:48;;;;;;;9.00;6.63;;;;;;;11.42;100.00;101439.53;2081410;28;20183;-67
2023/03/31 00:40:49;;;;;;;10.23;6.47;;;;;;;11.43;100.00;101441.13;2080773;28;20504;-67
2023/03/31 00:41:49;;;;;;;11.93;6.50;;;;;;;11.43;100.00;101436.31;2081292;28;20615;-67
2023/03/31 00:42:50;;;;;;;8.93;6.40;;;;;;;11.43;100.00;101436.31;2081503;28;20216;-67
2023/03/31 00:44:08;;;;;;;9.53;6.47;;;;;;;11.41;100.00;101437.94;2081649;28;20209;-67
2023/03/31 00:45:15;;;;;;;10.63;6.60;;;;;;;11.37;100.00;101440.78;2080834;28;20212;-67
2023/03/31 00:46:26;;;;;;;8.47;5.60;;;;;;;11.24;100.00;101434.25;2081355;28;20546;-67
2023/03/31 00:47:28;;;;;;;9.23;5.80;;;;;;;11.25;100.00;101435.81;2080765;28;21132;-67
2023/03/31 00:48:30;;;;;;;8.87;5.53;;;;;;;11.20;100.00;101430.72;2081509;28;20513;-67
2023/03/31 00:49:41;;;;;;;8.33;4.80;;;;;;;11.20;100.00;101421.59;2081447;28;20447;-67
2023/03/31 00:50:50;;;;;;;8.73;5.43;;;;;;;11.21;100.00;101412.88;2075568;28;20490;-68
2023/03/31 00:51:52;;;;;;;10.40;5.43;;;;;;;11.25;100.00;101421.13;2079202;28;20477;-67
2023/03/31 00:53:01;;;;;;;7.03;5.10;;;;;;;11.23;100.00;101418.78;2081366;28;20522;-67
2023/03/31 00:54:05;;;;;;;13.23;5.90;;;;;;;11.22;100.00;101417.22;2081181;28;20450;-67
2023/03/31 00:55:11;;;;;;;12.20;6.07;;;;;;;11.22;100.00;101422.00;2082462;28;20443;-67
2023/03/31 00:56:15;;;;;;;10.03;5.97;;;;;;;11.24;100.00;101425.13;2084389;28;20484;-67
2023/03/31 00:57:15;;;;;;;9.13;5.97;;;;;;;11.24;100.00;101420.38;2085304;28;20525;-67
2023/03/31 00:58:21;;;;;;;10.33;6.23;;;;;;;11.30;100.00;101420.66;2081255;28;21043;-67
2023/03/31 00:59:26;;;;;;;8.93;5.93;;;;;;;11.20;100.00;101402.97;2081454;28;20153;-67
2023/03/31 01:00:29;;;;;;;7.83;5.77;;;;;;;11.31;100.00;101413.91;2081381;28;20917;-67
2023/03/31 01:01:30;;;;;;;8.37;5.70;;;;;;;11.31;100.00;101416.69;2081240;28;20408;-67
2023/03/31 01:02:30;;;;;;;8.27;5.67;;;;;;;11.31;100.00;101423.03;2081644;28;20419;-68
2023/03/31 01:03:32;;;;;;;9.43;5.70;;;;;;;11.33;100.00;101430.94;2081452;28;20442;-67
2023/03/31 01:04:38;;;;;;;7.53;5.47;;;;;;;11.34;100.00;101427.75;2081172;28;20215;-67
2023/03/31 01:05:46;;;;;;;9.77;5.57;;;;;;;11.35;100.00;101425.75;2080792;28;20920;-67
2023/03/31 01:06:59;;;;;;;7.40;5.43;;;;;;;11.32;100.00;101421.06;2081009;28;20573;-67
2023/03/31 01:08:01;;;;;;;6.17;5.13;;;;;;;11.28;100.00;101421.06;2071762;28;20498;-67
2023/03/31 01:09:05;;;;;;;8.97;5.50;;;;;;;11.24;100.00;101409.28;2067020;28;20547;-67
2023/03/31 01:10:07;;;;;;;8.70;5.90;;;;;;;11.34;100.00;101426.97;2073562;28;20471;-67
2023/03/31 01:11:10;;;;;;;9.10;6.07;;;;;;;10.88;100.00;101335.28;2085146;28;20462;-67
2023/03/31 01:12:12;;;;;;;7.80;5.70;;;;;;;11.38;100.00;101416.59;2081285;28;20462;-68
2023/03/31 01:13:15;;;;;;;8.73;5.33;;;;;;;10.71;100.00;101308.59;2080995;28;20420;-67
2023/03/31 01:14:15;;;;;;;6.93;5.63;;;;;;;11.37;100.00;101418.56;2087627;28;21026;-68
2023/03/31 01:15:16;;;;;;;9.33;6.27;;;;;;;11.33;100.00;101426.16;2080766;28;20894;-68
2023/03/31 01:16:17;;;;;;;10.13;6.10;;;;;;;11.30;100.00;101415.91;2081254;28;20204;-67
2023/03/31 01:17:20;;;;;;;10.43;6.20;;;;;;;11.11;100.00;101386.06;2080107;28;20285;-67
2023/03/31 01:18:21;;;;;;;8.17;5.63;;;;;;;10.79;100.00;101332.22;2080447;28;20208;-67
2023/03/31 01:19:41;;;;;;;10.83;6.30;;;;;;;11.36;100.00;101419.00;2081318;28;20436;-68
2023/03/31 01:21:14;;;;;;;7.77;5.50;;;;;;;11.32;100.00;101407.94;2081295;28;20809;-67
2023/03/31 01:22:50;;;;;;;8.43;5.87;;;;;;;11.29;100.00;101408.00;2080812;28;21066;-67
2023/03/31 01:24:07;;;;;;;9.40;5.87;;;;;;;11.30;100.00;101407.59;2075985;28;20444;-67
2023/03/31 01:25:41;;;;;;;10.37;6.27;;;;;;;11.27;100.00;101411.19;2077768;28;20447;-68
2023/03/31 01:27:15;;;;;;;10.13;6.07;;;;;;;11.25;100.00;101410.84;2056160;28;20430;-67
2023/03/31 01:28:34;;;;;;;11.20;6.80;;;;;;;11.28;100.00;101403.66;2072652;28;20500;-67
2023/03/31 01:29:39;;;;;;;10.13;6.20;;;;;;;11.27;100.00;101402.09;2078190;28;20435;-68
2023/03/31 01:31:33;;;;;;;7.87;6.13;;;;;;;11.25;100.00;101398.94;2080566;28;20444;-67
2023/03/31 01:32:57;;;;;;;10.47;5.80;;;;;;;11.27;100.00;101407.66;2055526;28;20847;-67
2023/03/31 01:34:00;;;;;;;8.97;5.87;;;;;;;11.29;100.00;101403.25;2055624;28;20502;-67
2023/03/31 01:35:19;;;;;;;8.67;5.73;;;;;;;11.25;100.00;101398.94;2075816;28;20514;-67
2023/03/31 01:36:39;;;;;;;8.77;6.23;;;;;;;11.20;100.00;101400.19;2080455;28;20423;-67
2023/03/31 01:37:46;;;;;;;9.27;6.30;;;;;;;11.20;100.00;101396.63;2079535;28;20459;-68
2023/03/31 01:39:32;;;;;;;8.53;5.87;;;;;;;11.13;100.00;101388.41;2080345;28;20431;-67
2023/03/31 01:40:56;;;;;;;9.00;6.30;;;;;;;10.49;100.00;101293.41;2057366;28;20441;-67
2023/03/31 01:41:57;;;;;;;9.47;6.63;;;;;;;11.17;100.00;101398.25;2074090;28;20874;-67
2023/03/31 01:43:16;;;;;;;8.57;5.93;;;;;;;11.19;100.00;101400.63;2081075;28;20423;-67
2023/03/31 01:44:23;;;;;;;10.77;6.13;;;;;;;11.24;100.00;101400.16;2080610;28;20630;-68
2023/03/31 01:45:32;;;;;;;9.47;5.90;;;;;;;10.85;100.00;101331.34;2080300;28;20605;-68
2023/03/31 01:46:40;;;;;;;10.17;6.50;;;;;;;11.06;100.00;101366.34;2079929;28;20404;-68
2023/03/31 01:47:50;;;;;;;8.70;6.50;;;;;;;11.22;100.00;101392.25;2073144;28;20411;-67
2023/03/31 01:49:06;;;;;;;10.83;6.20;;;;;;;11.25;100.00;101390.63;2080867;28;20512;-68
2023/03/31 01:50:20;;;;;;;11.80;6.27;;;;;;;11.26;100.00;101389.41;2078779;28;20400;-67
2023/03/31 01:51:30;;;;;;;8.90;6.63;;;;;;;11.23;100.00;101393.03;2075543;28;20619;-68
2023/03/31 01:52:41;;;;;;;9.60;6.20;;;;;;;11.25;100.00;101396.16;2080857;28;20490;-68
2023/03/31 01:54:01;;;;;;;8.20;6.43;;;;;;;11.24;100.00;101395.41;2080766;28;20435;-68
2023/03/31 01:55:02;;;;;;;11.53;6.70;;;;;;;11.24;100.00;101389.84;2076151;28;20480;-68
2023/03/31 01:56:12;;;;;;;10.60;6.30;;;;;;;11.25;100.00;101387.84;2077401;28;20975;-68
2023/03/31 01:57:18;;;;;;;11.13;6.10;;;;;;;11.28;100.00;101398.13;2085264;28;20197;-67
2023/03/31 01:58:23;;;;;;;11.07;6.60;;;;;;;11.29;100.00;101396.91;2080697;28;20501;-67
2023/03/31 01:59:34;;;;;;;12.23;6.33;;;;;;;11.32;100.00;101396.09;2078435;28;20416;-67
2023/03/31 02:00:40;;;;;;;8.43;6.07;;;;;;;11.33;100.00;101392.09;2075289;28;20448;-67
2023/03/31 02:01:44;;;;;;;9.17;5.80;;;;;;;11.41;100.00;101399.91;2080886;28;20400;-67
2023/03/31 02:02:49;;;;;;;10.67;6.13;;;;;;;11.25;100.00;101372.00;2080654;28;20933;-68
2023/03/31 02:03:59;;;;;;;9.47;6.17;;;;;;;11.47;100.00;101384.34;2079776;28;20749;-67
2023/03/31 02:05:05;;;;;;;8.77;5.67;;;;;;;11.47;100.00;101380.78;2073916;28;20409;-67
2023/03/31 02:06:18;;;;;;;10.20;6.17;;;;;;;11.50;100.00;101388.25;2080532;28;20876;-68
2023/03/31 02:07:26;;;;;;;11.33;5.77;;;;;;;11.51;100.00;101393.41;2080143;28;20451;-68
2023/03/31 02:08:36;;;;;;;8.60;6.00;;;;;;;11.52;100.00;101385.88;2079488;28;20420;-67
2023/03/31 02:09:43;;;;;;;7.23;5.90;;;;;;;11.54;100.00;101389.75;2073896;28;20436;-67
2023/03/31 02:10:45;;;;;;;9.07;6.57;;;;;;;11.53;100.00;101379.88;2080471;28;20411;-67
2023/03/31 02:11:47;;;;;;;9.10;6.53;;;;;;;11.42;100.00;101375.72;2080555;28;20931;-68
2023/03/31 02:12:50;;;;;;;9.03;5.37;;;;;;;11.55;100.00;101385.81;2072812;28;20471;-67
2023/03/31 02:13:54;;;;;;;10.63;6.13;;;;;;;11.57;100.00;101379.81;2072860;28;20432;-67
2023/03/31 02:14:57;;;;;;;10.03;6.00;;;;;;;11.44;100.00;101357.44;2079578;28;20485;-67
2023/03/31 02:16:04;;;;;;;9.00;5.83;;;;;;;11.63;100.00;101386.50;2079609;28;20478;-67
2023/03/31 02:17:07;;;;;;;7.37;5.60;;;;;;;11.64;100.00;101385.31;2075133;28;20476;-67
2023/03/31 02:18:12;;;;;;;9.43;5.80;;;;;;;11.61;100.00;101388.91;2076846;28;20447;-67
2023/03/31 02:19:17;;;;;;;9.17;6.00;;;;;;;11.58;100.00;101384.94;2080739;28;20519;-67
2023/03/31 02:20:20;;;;;;;7.70;5.87;;;;;;;11.59;100.00;101383.00;2080278;28;20450;-67
2023/03/31 02:21:21;;;;;;;13.67;6.40;;;;;;;11.12;100.00;101317.50;2080660;28;20447;-67
2023/03/31 02:22:23;;;;;;;8.47;6.03;;;;;;;11.55;100.00;101385.00;2079708;28;20425;-67
2023/03/31 02:23:30;;;;;;;10.50;6.17;;;;;;;11.52;100.00;101383.09;2080250;28;20184;-67
2023/03/31 02:24:35;;;;;;;10.07;5.93;;;;;;;11.50;100.00;101389.06;2079614;28;20969;-67
2023/03/31 02:25:45;;;;;;;10.97;6.60;;;;;;;11.50;100.00;101391.84;2072175;28;20594;-68
2023/03/31 02:26:58;;;;;;;11.90;5.90;;;;;;;10.82;100.00;101279.50;2072625;28;20431;-67
2023/03/31 02:28:05;;;;;;;10.73;6.70;;;;;;;11.45;100.00;101403.41;2078895;28;21051;-67
2023/03/31 02:29:06;;;;;;;9.57;6.17;;;;;;;11.42;100.00;101384.81;2073863;28;20968;-67
2023/03/31 02:30:07;;;;;;;10.47;6.53;;;;;;;10.83;100.00;101294.16;2080914;28;20881;-67
2023/03/31 02:31:27;;;;;;;6.83;5.97;;;;;;;11.43;100.00;101380.06;2080687;28;20196;-67
2023/03/31 02:32:40;;;;;;;8.80;6.70;;;;;;;11.41;100.00;101371.34;2080973;28;20424;-67
2023/03/31 02:33:41;;;;;;;13.37;6.50;;;;;;;11.41;100.00;101371.34;2072855;28;20457;-67
2023/03/31 02:34:41;;;;;;;13.00;6.43;;;;;;;11.41;100.00;101374.13;2080686;28;20477;-67
2023/03/31 02:35:42;;;;;;;10.87;7.13;;;;;;;11.40;100.00;101373.34;2079847;28;20196;-67
2023/03/31 02:36:47;;;;;;;11.20;6.90;;;;;;;11.38;100.00;101367.41;2080490;28;20181;-67
2023/03/31 02:37:51;;;;;;;9.17;6.53;;;;;;;11.40;100.00;101369.78;2073743;28;20668;-67
2023/03/31 02:39:29;;;;;;;9.70;6.90;;;;;;;11.43;100.00;101374.50;2072564;28;20970;-67
2023/03/31 02:40:30;;;;;;;9.43;6.90;;;;;;;11.40;100.00;101367.00;2039608;29;20461;-67
2023/03/31 02:41:31;;;;;;;9.07;6.33;;;;;;;11.39;100.00;101371.00;2039581;29;20460;-67
2023/03/31 02:42:32;;;;;;;8.30;6.30;;;;;;;11.33;100.00;101378.22;2055895;28;20687;-67
2023/03/31 02:43:32;;;;;;;12.33;6.63;;;;;;;11.27;100.00;101382.69;2078230;28;20827;-67
2023/03/31 02:44:38;;;;;;;9.73;7.00;;;;;;;11.30;100.00;101376.28;2080473;28;20201;-67
2023/03/31 02:45:45;;;;;;;8.07;6.77;;;;;;;11.33;100.00;101376.22;2075823;28;20197;-67
2023/03/31 02:46:47;;;;;;;12.87;7.20;;;;;;;11.33;100.00;101383.78;2076194;28;20469;-67
2023/03/31 02:47:47;;;;;;;8.87;6.80;;;;;;;11.32;100.00;101379.44;2079712;28;20456;-67
2023/03/31 02:48:53;;;;;;;10.93;7.03;;;;;;;10.88;100.00;101310.31;2080357;28;20423;-67
2023/03/31 02:49:57;;;;;;;9.67;7.00;;;;;;;11.23;100.00;101385.47;2080351;28;20623;-67
2023/03/31 02:51:19;;;;;;;9.60;7.00;;;;;;;11.26;100.00;101383.84;2080385;28;20814;-67
2023/03/31 02:52:26;;;;;;;8.83;6.03;;;;;;;11.28;100.00;101379.47;2080236;28;20415;-67
2023/03/31 02:53:32;;;;;;;9.77;6.90;;;;;;;11.34;100.00;101377.00;2080463;28;21011;-68
2023/03/31 02:55:21;;;;;;;10.33;7.43;;;;;;;11.28;100.00;101343.38;2082016;28;20392;-68
2023/03/31 02:56:34;;;;;;;14.83;7.83;;;;;;;11.49;100.00;101368.06;2086055;28;20498;-68
2023/03/31 02:57:50;;;;;;;10.70;7.27;;;;;;;11.50;100.00;101369.63;2080272;28;20452;-68
2023/03/31 02:59:03;;;;;;;9.53;6.93;;;;;;;10.58;100.00;101230.75;2080868;28;20400;-68
2023/03/31 03:00:51;;;;;;;12.03;6.47;;;;;;;11.54;100.00;101356.44;2080087;28;20415;-68
2023/03/31 03:02:12;;;;;;;9.23;6.43;;;;;;;11.52;100.00;101358.09;2060408;28;20464;-68
2023/03/31 03:03:31;;;;;;;11.63;6.70;;;;;;;11.49;100.00;101351.41;2055871;28;21018;-68
2023/03/31 03:04:53;;;;;;;10.87;7.07;;;;;;;11.04;100.00;101291.88;2071416;28;20429;-68
2023/03/31 03:06:26;;;;;;;10.57;6.63;;;;;;;11.54;100.00;101350.13;2071862;28;20456;-68
2023/03/31 03:08:10;;;;;;;9.83;6.70;;;;;;;11.56;100.00;101347.72;2079563;28;20948;-68
2023/03/31 03:09:28;;;;;;;11.23;7.03;;;;;;;11.06;100.00;101295.00;2051279;28;20459;-68
2023/03/31 03:10:43;;;;;;;9.10;6.50;;;;;;;11.44;100.00;101346.34;2072576;28;20408;-68
2023/03/31 03:11:44;;;;;;;8.10;6.63;;;;;;;11.46;100.00;101345.88;2080226;28;20443;-68
2023/03/31 03:13:05;;;;;;;9.63;7.00;;;;;;;11.51;100.00;101351.75;2080034;28;20423;-68
2023/03/31 03:14:20;;;;;;;8.63;6.60;;;;;;;11.52;100.00;101356.09;2080443;28;20288;-68
2023/03/31 03:15:31;;;;;;;8.73;6.60;;;;;;;11.42;100.00;101336.84;2079629;28;20877;-68
2023/03/31 03:16:38;;;;;;;11.93;6.47;;;;;;;11.52;100.00;101342.22;2079934;28;20435;-68
2023/03/31 03:17:45;;;;;;;9.07;6.60;;;;;;;11.52;100.00;101336.66;2076909;28;20469;-68
2023/03/31 03:19:00;;;;;;;7.67;6.47;;;;;;;11.50;100.00;101330.78;2074410;28;20515;-68
2023/03/31 03:20:07;;;;;;;10.27;6.43;;;;;;;11.50;100.00;101336.31;2080134;28;20955;-68
2023/03/31 03:21:07;;;;;;;8.87;6.53;;;;;;;11.43;100.00;101336.41;2080485;28;20501;-68
2023/03/31 03:22:08;;;;;;;7.27;6.10;;;;;;;11.56;100.00;101353.25;2078603;28;20440;-67
2023/03/31 03:23:08;;;;;;;9.40;6.10;;;;;;;11.58;100.00;101337.00;2072729;28;20182;-68
2023/03/31 03:24:09;;;;;;;9.97;5.83;;;;;;;11.58;100.00;101337.00;2080568;28;20783;-68
2023/03/31 03:25:12;;;;;;;6.30;5.27;;;;;;;11.59;100.00;101333.03;2079878;28;20181;-68
2023/03/31 03:26:13;;;;;;;9.57;5.77;;;;;;;11.62;100.00;101334.94;2080321;28;20282;-68
2023/03/31 03:27:14;;;;;;;8.53;6.23;;;;;;;11.63;100.00;101333.75;2074037;28;20448;-68
2023/03/31 03:28:14;;;;;;;8.57;6.27;;;;;;;11.63;100.00;101331.75;2076274;28;20277;-68
2023/03/31 03:29:14;;;;;;;9.67;6.10;;;;;;;11.58;100.00;101328.66;2080063;28;20216;-68
2023/03/31 03:30:15;;;;;;;7.57;6.00;;;;;;;11.61;100.00;101325.06;2080121;28;20693;-68
2023/03/31 03:31:16;;;;;;;9.27;6.10;;;;;;;11.10;100.00;101248.56;2080118;28;20177;-68
2023/03/31 03:32:16;;;;;;;7.70;6.20;;;;;;;11.57;100.00;101308.44;2071313;28;20663;-68
2023/03/31 03:33:17;;;;;;;9.87;6.40;;;;;;;11.63;100.00;101319.88;2063872;28;20425;-68
2023/03/31 03:34:19;;;;;;;9.77;6.40;;;;;;;11.63;100.00;101319.88;2079139;28;20184;-68
2023/03/31 03:35:19;;;;;;;6.83;5.90;;;;;;;11.63;100.00;101317.88;2078959;28;20204;-68
2023/03/31 03:36:20;;;;;;;8.17;5.80;;;;;;;11.63;100.00;101319.88;2075211;28;21020;-67
2023/03/31 03:37:21;;;;;;;8.90;5.70;;;;;;;11.62;100.00;101318.28;2075407;28;20193;-68
2023/03/31 03:38:21;;;;;;;11.27;6.37;;;;;;;11.58;100.00;101312.00;2079582;28;20428;-68
2023/03/31 03:39:21;;;;;;;8.93;6.13;;;;;;;11.47;100.00;101297.53;2079973;28;20185;-67
2023/03/31 03:40:22;;;;;;;9.60;6.57;;;;;;;11.61;100.00;101313.94;2079293;28;20185;-67
2023/03/31 03:41:23;;;;;;;10.23;6.73;;;;;;;11.61;100.00;101330.59;2063792;28;20229;-67
2023/03/31 03:42:23;;;;;;;8.93;6.33;;;;;;;11.13;100.00;101241.41;2070463;28;20332;-68
2023/03/31 03:43:24;;;;;;;9.40;6.67;;;;;;;11.64;100.00;101319.44;2080081;28;20232;-67
2023/03/31 03:44:24;;;;;;;11.03;6.77;;;;;;;11.66;100.00;101316.25;2080230;28;20207;-67
2023/03/31 03:45:24;;;;;;;8.83;6.80;;;;;;;11.67;100.00;101313.06;2075733;28;20217;-68
2023/03/31 03:46:26;;;;;;;8.70;6.43;;;;;;;11.68;100.00;101322.19;2074496;28;20575;-68
2023/03/31 03:47:27;;;;;;;7.80;6.30;;;;;;;11.67;100.00;101315.03;2079237;28;20207;-68
2023/03/31 03:48:27;;;;;;;10.53;6.70;;;;;;;11.66;100.00;101319.81;2074227;28;20914;-68
2023/03/31 03:49:28;;;;;;;9.87;6.30;;;;;;;11.68;100.00;101322.19;2082224;28;20885;-68
2023/03/31 03:50:28;;;;;;;8.80;6.40;;;;;;;11.66;100.00;101319.81;2082040;28;20196;-68
2023/03/31 03:51:28;;;;;;;9.17;6.70;;;;;;;11.66;100.00;101313.47;2081670;28;20236;-68
2023/03/31 03:52:29;;;;;;;10.17;7.10;;;;;;;11.66;100.00;101316.25;2076527;28;20186;-67
2023/03/31 03:53:29;;;;;;;9.13;6.50;;;;;;;11.63;100.00;101308.78;2078030;28;20589;-67
2023/03/31 03:54:30;;;;;;;11.07;7.07;;;;;;;11.63;100.00;101317.09;2083059;28;20204;-68
2023/03/31 03:55:30;;;;;;;8.73;6.57;;;;;;;11.68;100.00;101314.59;2085603;28;20287;-67
2023/03/31 03:56:31;;;;;;;9.43;6.60;;;;;;;11.69;100.00;101305.06;2085472;28;20647;-68
2023/03/31 03:57:31;;;;;;;14.17;6.43;;;;;;;11.70;100.00;101305.88;2081939;28;20238;-66
2023/03/31 03:58:31;;;;;;;7.97;5.47;;;;;;;11.72;100.00;101307.00;2080116;28;20192;-71
2023/03/31 03:59:32;;;;;;;10.87;5.80;;;;;;;11.72;100.00;101297.88;2080363;28;20258;-65
2023/03/31 04:00:32;;;;;;;6.47;5.47;;;;;;;11.73;100.00;101303.03;2080559;28;20212;-65
2023/03/31 04:01:33;;;;;;;8.10;5.40;;;;;;;11.56;100.00;101273.56;2081525;28;20192;-66
2023/03/31 04:02:33;;;;;;;8.50;6.17;;;;;;;11.64;100.00;101294.44;2081703;28;20212;-67
2023/03/31 04:03:34;;;;;;;6.80;5.50;;;;;;;11.56;100.00;101301.31;2081677;28;20185;-70
2023/03/31 04:04:34;;;;;;;8.40;5.40;;;;;;;11.50;100.00;101294.69;2081600;28;20185;-63
2023/03/31 04:05:35;;;;;;;9.23;5.83;;;;;;;11.53;100.00;101287.50;2081502;28;20215;-64
2023/03/31 04:06:36;;;;;;;8.90;5.77;;;;;;;11.54;100.00;101292.59;2081562;28;20204;-63
2023/03/31 04:07:36;;;;;;;7.53;5.50;;;;;;;11.48;100.00;101279.66;2081158;28;20215;-64
2023/03/31 04:08:37;;;;;;;7.70;5.37;;;;;;;11.59;100.00;101299.72;2081479;28;20436;-65
2023/03/31 04:09:37;;;;;;;10.40;5.30;;;;;;;11.65;100.00;101300.78;2081219;28;20279;-65
2023/03/31 04:10:44;;;;;;;8.73;5.60;;;;;;;10.70;100.00;101147.00;2081036;28;20254;-64
2023/03/31 04:11:44;;;;;;;8.57;5.50;;;;;;;11.60;100.00;101293.75;2081485;28;20561;-64
2023/03/31 04:12:45;;;;;;;8.03;5.73;;;;;;;11.62;100.00;101293.31;2081164;28;20465;-64
2023/03/31 04:13:46;;;;;;;7.83;5.77;;;;;;;11.63;100.00;101304.00;2081636;28;20177;-64
2023/03/31 04:14:46;;;;;;;7.87;5.80;;;;;;;11.60;100.00;101299.31;2081748;28;20181;-64
2023/03/31 04:15:46;;;;;;;8.50;6.03;;;;;;;11.30;100.00;101248.63;2081183;28;20539;-67
2023/03/31 04:16:47;;;;;;;9.17;6.30;;;;;;;11.12;100.00;101220.41;2081052;28;20194;-65
2023/03/31 04:17:49;;;;;;;9.57;6.60;;;;;;;11.34;100.00;101244.63;2081160;28;20307;-68
2023/03/31 04:18:57;;;;;;;8.27;6.37;;;;;;;11.74;100.00;101295.50;2080970;28;20204;-63
2023/03/31 04:20:06;;;;;;;10.33;7.37;;;;;;;11.73;100.00;101300.25;2075652;28;20475;-63
2023/03/31 04:21:14;;;;;;;9.83;7.27;;;;;;;11.76;100.00;101296.63;2077610;28;20455;-64
2023/03/31 04:22:19;;;;;;;9.40;7.00;;;;;;;11.78;100.00;101290.66;2078763;28;20478;-62
2023/03/31 04:23:22;;;;;;;11.53;9.50;;;;;;;11.78;100.00;101285.88;2080251;28;20504;-63
2023/03/31 04:24:29;;;;;;;11.50;7.27;;;;;;;11.83;100.00;101279.84;2079865;28;20459;-63
2023/03/31 04:25:30;;;;;;;8.63;6.10;;;;;;;11.87;100.00;101285.31;2079494;28;20859;-66
2023/03/31 04:26:42;;;;;;;7.03;6.10;;;;;;;11.91;100.00;101275.72;2079759;28;20509;-66
2023/03/31 04:27:53;;;;;;;9.70;6.90;;;;;;;11.90;100.00;101279.72;2079179;28;20191;-63
2023/03/31 04:28:57;;;;;;;9.13;6.20;;;;;;;11.11;100.00;101144.72;2076507;28;20420;-65
2023/03/31 04:29:57;;;;;;;9.37;6.03;;;;;;;11.94;100.00;101266.53;2086939;28;20452;-63
2023/03/31 04:30:58;;;;;;;7.87;5.97;;;;;;;11.95;100.00;101264.53;2079453;28;20528;-63
2023/03/31 04:31:59;;;;;;;12.47;7.07;;;;;;;11.97;100.00;101270.44;2081209;28;20195;-63
2023/03/31 04:33:01;;;;;;;8.57;6.57;;;;;;;11.97;100.00;101257.34;2080684;28;20199;-65
2023/03/31 04:34:05;;;;;;;12.97;7.47;;;;;;;11.98;100.00;101258.91;2079855;28;20185;-62
2023/03/31 04:35:06;;;;;;;11.07;6.60;;;;;;;12.03;100.00;101258.41;2078716;28;20880;-62
2023/03/31 04:36:16;;;;;;;10.90;6.77;;;;;;;12.04;100.00;101271.09;2081630;28;20934;-62
2023/03/31 04:37:17;;;;;;;13.20;8.13;;;;;;;11.56;100.00;101172.84;2082370;28;20651;-64
2023/03/31 04:38:26;;;;;;;12.33;7.97;;;;;;;12.13;100.00;101256.63;2079663;28;20534;-63
2023/03/31 04:39:29;;;;;;;11.73;6.00;;;;;;;12.16;100.00;101264.13;2080549;28;20186;-64
2023/03/31 04:40:29;;;;;;;7.50;5.20;;;;;;;12.10;100.00;101249.16;2079278;28;20502;-63
2023/03/31 04:41:30;;;;;;;12.80;5.50;;;;;;;12.19;100.00;101255.72;2078117;28;20431;-66
2023/03/31 04:42:30;;;;;;;12.10;5.67;;;;;;;12.21;100.00;101258.06;2084695;28;20221;-66
2023/03/31 04:43:31;;;;;;;10.13;5.50;;;;;;;12.24;100.00;101254.44;2079351;28;20730;-64
2023/03/31 04:44:31;;;;;;;12.83;6.47;;;;;;;11.45;100.00;101131.41;2078796;28;20189;-64
2023/03/31 04:45:32;;;;;;;11.50;6.00;;;;;;;12.29;100.00;101260.25;2079193;28;20508;-64
2023/03/31 04:46:34;;;;;;;10.07;4.63;;;;;;;12.31;100.00;101260.63;2080759;28;20225;-64
2023/03/31 04:47:34;;;;;;;13.10;5.83;;;;;;;12.35;100.00;101261.31;2083243;28;20194;-64
2023/03/31 04:48:35;;;;;;;11.30;5.60;;;;;;;12.37;100.00;101258.13;2080349;28;20518;-64
2023/03/31 04:49:35;;;;;;;9.23;4.77;;;;;;;11.85;100.00;101171.91;2078479;28;20200;-63
2023/03/31 04:50:37;;;;;;;10.57;5.70;;;;;;;12.16;100.00;101216.88;2080412;28;20186;-62
2023/03/31 04:51:37;;;;;;;10.03;6.20;;;;;;;12.48;100.00;101253.13;2077838;28;20711;-63
2023/03/31 04:52:38;;;;;;;14.57;8.67;;;;;;;12.48;100.00;101251.13;2078349;28;20451;-63
2023/03/31 04:53:39;;;;;;;11.03;6.73;;;;;;;12.57;100.00;101253.31;2077774;28;20581;-63
2023/03/31 04:54:40;;;;;;;7.63;4.67;;;;;;;12.57;100.00;101258.88;2074502;28;20452;-64
2023/03/31 04:55:40;;;;;;;10.20;4.57;;;;;;;12.60;100.00;101252.47;2078980;28;20643;-63
2023/03/31 04:56:41;;;;;;;12.00;4.00;;;;;;;11.94;100.00;101144.31;2077801;28;20195;-64
2023/03/31 04:57:41;;;;;;;7.77;4.47;;;;;;;12.58;100.00;101233.44;2077630;28;20273;-63
2023/03/31 04:58:43;;;;;;;6.37;3.80;;;;;;;12.68;100.00;101235.19;2081236;28;20236;-64
2023/03/31 04:59:43;;;;;;;11.53;4.40;;;;;;;12.81;100.00;101255.53;2083229;28;20295;-66
2023/03/31 05:00:44;;;;;;;12.80;6.27;;;;;;;12.88;100.00;101260.97;2084760;28;20415;-65
2023/03/31 05:01:44;;;;;;;10.47;4.83;;;;;;;12.92;100.00;101258.84;2082773;28;20585;-63